sensor_id;sensor_type;location;lat;lon;timestamp;pressure;altitude;pressure_sealevel;temperature;humidity
17505;BME280;8870;50.950;11.762;2022-09-01T00:01:21;98857.91;;;15.87;100.00
17505;BME280;8870;50.950;11.762;2022-09-01T00:06:29;98844.72;;;15.76;100.00
17505;BME280;8870;50.950;11.762;2022-09-01T00:11:36;98846.66;;;15.67;100.00
17505;BME280;8870;50.950;11.762;2022-09-01T00:16:44;98854.72;;;15.60;100.00
17505;BME280;8870;50.950;11.762;2022-09-01T00:21:53;98851.41;;;15.50;100.00
17505;BME280;8870;50.950;11.762;2022-09-01T00:26:58;98852.88;;;15.37;100.00
17505;BME280;8870;50.950;11.762;2022-09-01T00:32:05;98854.97;;;15.27;100.00
17505;BME280;8870;50.950;11.762;2022-09-01T00:37:10;98857.75;;;15.19;100.00
17505;BME280;8870;50.950;11.762;2022-09-01T00:42:15;98848.63;;;15.12;100.00
17505;BME280;8870;50.950;11.762;2022-09-01T00:47:22;98852.75;;;15.07;100.00
17505;BME280;8870;50.950;11.762;2022-09-01T00:52:31;98846.03;;;14.95;100.00
17505;BME280;8870;50.950;11.762;2022-09-01T00:57:38;98851.56;;;14.78;100.00
17505;BME280;8870;50.950;11.762;2022-09-01T01:02:47;98850.09;;;14.68;100.00
17505;BME280;8870;50.950;11.762;2022-09-01T01:07:58;98863.66;;;14.59;100.00
17505;BME280;8870;50.950;11.762;2022-09-01T01:13:06;98852.00;;;14.51;100.00
17505;BME280;8870;50.950;11.762;2022-09-01T01:18:14;98850.19;;;14.43;100.00
17505;BME280;8870;50.950;11.762;2022-09-01T01:23:30;98848.16;;;14.37;100.00
17505;BME280;8870;50.950;11.762;2022-09-01T01:28:42;98843.78;;;14.27;100.00
17505;BME280;8870;50.950;11.762;2022-09-01T01:33:50;98843.97;;;14.17;100.00
17505;BME280;8870;50.950;11.762;2022-09-01T01:38:55;98844.00;;;14.09;100.00
17505;BME280;8870;50.950;11.762;2022-09-01T01:44:07;98847.78;;;14.00;100.00
17505;BME280;8870;50.950;11.762;2022-09-01T01:49:14;98846.25;;;13.89;100.00
17505;BME280;8870;50.950;11.762;2022-09-01T01:54:22;98850.88;;;13.80;100.00
17505;BME280;8870;50.950;11.762;2022-09-01T01:59:35;98842.09;;;13.70;100.00
17505;BME280;8870;50.950;11.762;2022-09-01T02:04:41;98848.69;;;13.59;100.00
17505;BME280;8870;50.950;11.762;2022-09-01T02:09:46;98836.00;;;13.51;100.00
17505;BME280;8870;50.950;11.762;2022-09-01T02:14:53;98846.13;;;13.33;100.00
17505;BME280;8870;50.950;11.762;2022-09-01T02:20:01;98834.25;;;13.25;100.00
17505;BME280;8870;50.950;11.762;2022-09-01T02:25:07;98834.44;;;13.16;100.00
17505;BME280;8870;50.950;11.762;2022-09-01T02:30:14;98833.22;;;13.02;100.00
17505;BME280;8870;50.950;11.762;2022-09-01T02:35:20;98839.31;;;12.95;100.00
17505;BME280;8870;50.950;11.762;2022-09-01T02:40:28;98831.34;;;12.86;100.00
17505;BME280;8870;50.950;11.762;2022-09-01T02:45:37;98836.38;;;12.72;100.00
17505;BME280;8870;50.950;11.762;2022-09-01T02:50:43;98832.81;;;12.63;100.00
17505;BME280;8870;50.950;11.762;2022-09-01T02:55:48;98833.66;;;12.56;100.00
17505;BME280;8870;50.950;11.762;2022-09-01T03:00:56;98833.06;;;12.44;100.00
17505;BME280;8870;50.950;11.762;2022-09-01T03:06:04;98833.88;;;12.36;100.00
17505;BME280;8870;50.950;11.762;2022-09-01T03:11:11;98831.47;;;12.25;100.00
17505;BME280;8870;50.950;11.762;2022-09-01T03:16:18;98842.09;;;12.18;100.00
17505;BME280;8870;50.950;11.762;2022-09-01T03:21:23;98837.34;;;12.12;100.00
17505;BME280;8870;50.950;11.762;2022-09-01T03:26:29;98837.66;;;12.09;100.00
17505;BME280;8870;50.950;11.762;2022-09-01T03:31:39;98833.78;;;12.11;100.00
17505;BME280;8870;50.950;11.762;2022-09-01T03:36:44;98836.84;;;12.16;100.00
17505;BME280;8870;50.950;11.762;2022-09-01T03:42:01;98840.41;;;12.17;100.00
17505;BME280;8870;50.950;11.762;2022-09-01T03:47:09;98833.84;;;12.20;100.00
17505;BME280;8870;50.950;11.762;2022-09-01T03:52:16;98837.38;;;12.20;100.00
17505;BME280;8870;50.950;11.762;2022-09-01T03:57:27;98849.19;;;12.19;100.00
17505;BME280;8870;50.950;11.762;2022-09-01T04:02:53;98846.47;;;12.19;100.00
17505;BME280;8870;50.950;11.762;2022-09-01T04:08:03;98846.13;;;12.14;100.00
17505;BME280;8870;50.950;11.762;2022-09-01T04:13:08;98841.72;;;12.13;100.00
17505;BME280;8870;50.950;11.762;2022-09-01T04:18:19;98845.28;;;12.13;100.00
17505;BME280;8870;50.950;11.762;2022-09-01T04:23:26;98848.97;;;12.12;100.00
17505;BME280;8870;50.950;11.762;2022-09-01T04:28:39;98842.06;;;12.10;100.00
17505;BME280;8870;50.950;11.762;2022-09-01T04:33:50;98852.69;;;12.11;100.00
17505;BME280;8870;50.950;11.762;2022-09-01T04:38:57;98851.00;;;12.10;100.00
17505;BME280;8870;50.950;11.762;2022-09-01T04:44:04;98862.66;;;12.11;100.00
17505;BME280;8870;50.950;11.762;2022-09-01T04:49:16;98859.94;;;12.11;100.00
17505;BME280;8870;50.950;11.762;2022-09-01T04:54:26;98864.66;;;12.09;100.00
17505;BME280;8870;50.950;11.762;2022-09-01T04:59:33;98870.28;;;12.15;100.00
17505;BME280;8870;50.950;11.762;2022-09-01T05:04:41;98865.25;;;12.21;100.00
17505;BME280;8870;50.950;11.762;2022-09-01T05:09:47;98865.59;;;12.26;100.00
17505;BME280;8870;50.950;11.762;2022-09-01T05:15:15;98873.06;;;12.32;100.00
17505;BME280;8870;50.950;11.762;2022-09-01T05:20:25;98870.72;;;12.37;100.00
17505;BME280;8870;50.950;11.762;2022-09-01T05:25:36;98865.50;;;12.44;100.00
17505;BME280;8870;50.950;11.762;2022-09-01T05:30:43;98863.50;;;12.46;100.00
17505;BME280;8870;50.950;11.762;2022-09-01T05:35:55;98860.66;;;12.56;100.00
17505;BME280;8870;50.950;11.762;2022-09-01T05:41:03;98864.41;;;12.63;100.00
17505;BME280;8870;50.950;11.762;2022-09-01T05:46:09;98869.50;;;12.74;100.00
17505;BME280;8870;50.950;11.762;2022-09-01T05:51:22;98863.97;;;12.84;100.00
17505;BME280;8870;50.950;11.762;2022-09-01T05:56:45;98868.38;;;12.93;100.00
17505;BME280;8870;50.950;11.762;2022-09-01T06:01:54;98863.47;;;13.05;100.00
17505;BME280;8870;50.950;11.762;2022-09-01T06:07:02;98857.78;;;13.17;100.00
17505;BME280;8870;50.950;11.762;2022-09-01T06:12:15;98863.88;;;13.27;100.00
17505;BME280;8870;50.950;11.762;2022-09-01T06:17:26;98862.88;;;13.36;100.00
17505;BME280;8870;50.950;11.762;2022-09-01T06:22:39;98877.78;;;13.49;100.00
17505;BME280;8870;50.950;11.762;2022-09-01T06:27:46;98870.34;;;13.59;100.00
17505;BME280;8870;50.950;11.762;2022-09-01T06:32:53;98868.97;;;13.71;100.00
17505;BME280;8870;50.950;11.762;2022-09-01T06:38:01;98871.00;;;13.86;100.00
17505;BME280;8870;50.950;11.762;2022-09-01T06:43:16;98878.25;;;14.02;100.00
17505;BME280;8870;50.950;11.762;2022-09-01T06:48:24;98873.47;;;14.12;100.00
17505;BME280;8870;50.950;11.762;2022-09-01T06:53:48;98880.91;;;14.27;100.00
17505;BME280;8870;50.950;11.762;2022-09-01T06:58:54;98874.91;;;14.40;100.00
17505;BME280;8870;50.950;11.762;2022-09-01T07:04:01;98888.44;;;14.48;100.00
17505;BME280;8870;50.950;11.762;2022-09-01T07:09:18;98884.50;;;14.59;100.00
17505;BME280;8870;50.950;11.762;2022-09-01T07:14:53;98885.47;;;14.66;100.00
17505;BME280;8870;50.950;11.762;2022-09-01T07:20:21;98883.56;;;14.83;100.00
17505;BME280;8870;50.950;11.762;2022-09-01T07:25:30;98893.66;;;14.98;100.00
17505;BME280;8870;50.950;11.762;2022-09-01T07:31:01;98887.69;;;15.10;100.00
17505;BME280;8870;50.950;11.762;2022-09-01T07:36:27;98890.81;;;15.22;100.00
17505;BME280;8870;50.950;11.762;2022-09-01T07:41:36;98892.44;;;15.32;100.00
17505;BME280;8870;50.950;11.762;2022-09-01T07:47:25;98894.91;;;15.41;100.00
17505;BME280;8870;50.950;11.762;2022-09-01T07:52:51;98900.41;;;15.56;100.00
17505;BME280;8870;50.950;11.762;2022-09-01T07:57:58;98895.28;;;15.62;100.00
17505;BME280;8870;50.950;11.762;2022-09-01T08:03:04;98905.41;;;15.68;100.00
17505;BME280;8870;50.950;11.762;2022-09-01T08:08:10;98900.28;;;15.73;100.00
17505;BME280;8870;50.950;11.762;2022-09-01T08:13:32;98904.94;;;15.88;100.00
17505;BME280;8870;50.950;11.762;2022-09-01T08:18:43;98903.94;;;16.04;100.00
17505;BME280;8870;50.950;11.762;2022-09-01T08:24:01;98902.06;;;16.19;100.00
17505;BME280;8870;50.950;11.762;2022-09-01T08:29:10;98906.88;;;16.32;100.00
17505;BME280;8870;50.950;11.762;2022-09-01T08:34:16;98908.28;;;16.43;100.00
17505;BME280;8870;50.950;11.762;2022-09-01T08:39:21;98916.25;;;16.59;100.00
17505;BME280;8870;50.950;11.762;2022-09-01T08:44:38;98906.59;;;16.72;100.00
17505;BME280;8870;50.950;11.762;2022-09-01T08:49:47;98901.13;;;16.87;100.00
17505;BME280;8870;50.950;11.762;2022-09-01T08:55:30;98906.56;;;17.02;100.00
17505;BME280;8870;50.950;11.762;2022-09-01T09:00:44;98906.13;;;17.20;100.00
17505;BME280;8870;50.950;11.762;2022-09-01T09:06:02;98912.47;;;17.42;100.00
17505;BME280;8870;50.950;11.762;2022-09-01T09:11:21;98903.78;;;17.53;100.00
17505;BME280;8870;50.950;11.762;2022-09-01T09:16:35;98909.34;;;17.67;100.00
17505;BME280;8870;50.950;11.762;2022-09-01T09:21:44;98906.53;;;17.82;100.00
17505;BME280;8870;50.950;11.762;2022-09-01T09:26:49;98907.56;;;18.02;100.00
17505;BME280;8870;50.950;11.762;2022-09-01T09:32:07;98900.53;;;18.15;100.00
17505;BME280;8870;50.950;11.762;2022-09-01T09:37:32;98905.25;;;18.28;100.00
17505;BME280;8870;50.950;11.762;2022-09-01T09:42:37;98898.00;;;18.42;100.00
17505;BME280;8870;50.950;11.762;2022-09-01T09:47:45;98897.78;;;18.43;100.00
17505;BME280;8870;50.950;11.762;2022-09-01T09:52:52;98890.53;;;18.57;100.00
17505;BME280;8870;50.950;11.762;2022-09-01T09:57:59;98884.28;;;18.70;100.00
17505;BME280;8870;50.950;11.762;2022-09-01T10:03:09;98880.75;;;18.83;100.00
17505;BME280;8870;50.950;11.762;2022-09-01T10:08:36;98878.38;;;19.08;100.00
17505;BME280;8870;50.950;11.762;2022-09-01T10:13:46;98879.88;;;19.24;100.00
17505;BME280;8870;50.950;11.762;2022-09-01T10:18:55;98870.44;;;19.34;100.00
17505;BME280;8870;50.950;11.762;2022-09-01T10:24:18;98875.06;;;19.47;100.00
17505;BME280;8870;50.950;11.762;2022-09-01T10:29:34;98867.13;;;19.65;100.00
17505;BME280;8870;50.950;11.762;2022-09-01T10:34:51;98871.31;;;19.61;100.00
17505;BME280;8870;50.950;11.762;2022-09-01T10:40:16;98878.06;;;19.59;100.00
17505;BME280;8870;50.950;11.762;2022-09-01T10:45:31;98869.84;;;19.59;100.00
17505;BME280;8870;50.950;11.762;2022-09-01T10:50:41;98861.88;;;19.50;100.00
17505;BME280;8870;50.950;11.762;2022-09-01T10:55:59;98864.59;;;19.50;100.00
17505;BME280;8870;50.950;11.762;2022-09-01T11:07:31;98863.94;;;19.82;100.00
17505;BME280;8870;50.950;11.762;2022-09-01T11:13:10;98858.47;;;20.22;100.00
17505;BME280;8870;50.950;11.762;2022-09-01T11:18:25;98855.31;;;20.25;98.13
17505;BME280;8870;50.950;11.762;2022-09-01T11:23:34;98851.31;;;20.35;100.00
17505;BME280;8870;50.950;11.762;2022-09-01T11:28:40;98851.59;;;20.72;91.61
17505;BME280;8870;50.950;11.762;2022-09-01T11:39:30;98857.16;;;21.04;86.86
17505;BME280;8870;50.950;11.762;2022-09-01T11:44:39;98845.94;;;21.12;79.85
17505;BME280;8870;50.950;11.762;2022-09-01T11:49:50;98851.69;;;21.04;93.95
17505;BME280;8870;50.950;11.762;2022-09-01T11:54:58;98854.78;;;20.69;99.12
17505;BME280;8870;50.950;11.762;2022-09-01T12:00:07;98851.66;;;20.58;96.36
17505;BME280;8870;50.950;11.762;2022-09-01T12:05:26;98858.63;;;20.47;97.30
17505;BME280;8870;50.950;11.762;2022-09-01T12:10:35;98859.94;;;20.31;100.00
17505;BME280;8870;50.950;11.762;2022-09-01T12:15:41;98850.91;;;20.24;100.00
17505;BME280;8870;50.950;11.762;2022-09-01T12:21:06;98852.78;;;20.24;100.00
17505;BME280;8870;50.950;11.762;2022-09-01T12:26:16;98849.22;;;20.23;100.00
17505;BME280;8870;50.950;11.762;2022-09-01T12:31:23;98844.38;;;20.25;100.00
17505;BME280;8870;50.950;11.762;2022-09-01T12:36:30;98836.59;;;20.29;98.11
17505;BME280;8870;50.950;11.762;2022-09-01T12:41:38;98843.91;;;20.35;89.03
17505;BME280;8870;50.950;11.762;2022-09-01T12:46:44;98839.91;;;20.44;84.11
17505;BME280;8870;50.950;11.762;2022-09-01T12:52:05;98838.78;;;20.59;84.12
17505;BME280;8870;50.950;11.762;2022-09-01T12:57:25;98825.28;;;20.71;79.01
17505;BME280;8870;50.950;11.762;2022-09-01T13:02:33;98834.13;;;20.80;78.05
17505;BME280;8870;50.950;11.762;2022-09-01T13:07:39;98832.81;;;20.89;77.67
17505;BME280;8870;50.950;11.762;2022-09-01T13:12:46;98823.03;;;21.00;70.87
17505;BME280;8870;50.950;11.762;2022-09-01T13:17:51;98815.06;;;20.98;65.68
17505;BME280;8870;50.950;11.762;2022-09-01T13:22:56;98807.00;;;21.10;63.09
17505;BME280;8870;50.950;11.762;2022-09-01T13:28:04;98801.69;;;21.15;60.53
17505;BME280;8870;50.950;11.762;2022-09-01T13:33:09;98798.47;;;21.25;61.48
17505;BME280;8870;50.950;11.762;2022-09-01T13:38:24;98797.00;;;21.22;61.20
17505;BME280;8870;50.950;11.762;2022-09-01T13:43:33;98787.41;;;21.38;58.87
17505;BME280;8870;50.950;11.762;2022-09-01T13:48:41;98788.13;;;21.52;55.93
17505;BME280;8870;50.950;11.762;2022-09-01T13:54:06;98792.66;;;21.91;52.47
17505;BME280;8870;50.950;11.762;2022-09-01T13:59:13;98792.94;;;22.45;46.52
17505;BME280;8870;50.950;11.762;2022-09-01T14:04:17;98780.63;;;22.66;48.68
17505;BME280;8870;50.950;11.762;2022-09-01T14:09:24;98784.59;;;22.70;48.31
17505;BME280;8870;50.950;11.762;2022-09-01T14:14:32;98784.75;;;22.75;48.72
17505;BME280;8870;50.950;11.762;2022-09-01T14:19:57;98774.84;;;23.17;47.25
17505;BME280;8870;50.950;11.762;2022-09-01T14:25:02;98768.47;;;23.70;48.27
17505;BME280;8870;50.950;11.762;2022-09-01T14:30:13;98776.38;;;24.26;46.26
17505;BME280;8870;50.950;11.762;2022-09-01T14:35:20;98764.31;;;24.56;46.62
17505;BME280;8870;50.950;11.762;2022-09-01T14:40:25;98764.13;;;25.04;44.84
17505;BME280;8870;50.950;11.762;2022-09-01T14:45:33;98762.44;;;25.32;43.29
17505;BME280;8870;50.950;11.762;2022-09-01T14:50:39;98758.63;;;25.50;44.80
17505;BME280;8870;50.950;11.762;2022-09-01T14:55:44;98759.19;;;25.69;42.59
17505;BME280;8870;50.950;11.762;2022-09-01T15:00:58;98756.00;;;25.77;42.35
17505;BME280;8870;50.950;11.762;2022-09-01T15:06:19;98748.13;;;25.86;41.95
17505;BME280;8870;50.950;11.762;2022-09-01T15:11:24;98747.22;;;26.20;40.84
17505;BME280;8870;50.950;11.762;2022-09-01T15:16:31;98740.88;;;26.41;39.84
17505;BME280;8870;50.950;11.762;2022-09-01T15:21:41;98737.19;;;26.58;39.73
17505;BME280;8870;50.950;11.762;2022-09-01T15:26:46;98721.72;;;26.79;39.11
17505;BME280;8870;50.950;11.762;2022-09-01T15:31:54;98730.00;;;27.06;38.50
17505;BME280;8870;50.950;11.762;2022-09-01T15:36:59;98729.66;;;27.35;37.77
17505;BME280;8870;50.950;11.762;2022-09-01T15:42:04;98720.03;;;27.05;38.36
17505;BME280;8870;50.950;11.762;2022-09-01T15:47:12;98715.13;;;26.13;39.58
17505;BME280;8870;50.950;11.762;2022-09-01T15:52:16;98723.88;;;25.71;40.80
17505;BME280;8870;50.950;11.762;2022-09-01T15:57:22;98724.75;;;25.54;41.62
17505;BME280;8870;50.950;11.762;2022-09-01T16:02:31;98722.81;;;25.21;41.75
17505;BME280;8870;50.950;11.762;2022-09-01T16:07:35;98719.38;;;25.14;42.82
17505;BME280;8870;50.950;11.762;2022-09-01T16:12:42;98714.00;;;24.90;42.88
17505;BME280;8870;50.950;11.762;2022-09-01T16:18:15;98717.94;;;24.65;42.90
17505;BME280;8870;50.950;11.762;2022-09-01T16:23:31;98714.53;;;24.46;42.86
17505;BME280;8870;50.950;11.762;2022-09-01T16:28:37;98707.03;;;24.29;43.19
17505;BME280;8870;50.950;11.762;2022-09-01T16:33:49;98712.94;;;24.21;44.18
17505;BME280;8870;50.950;11.762;2022-09-01T16:39:02;98721.59;;;24.13;44.27
17505;BME280;8870;50.950;11.762;2022-09-01T16:44:22;98719.69;;;24.02;44.17
17505;BME280;8870;50.950;11.762;2022-09-01T16:49:36;98714.75;;;23.92;45.32
17505;BME280;8870;50.950;11.762;2022-09-01T16:54:52;98711.94;;;23.63;45.14
17505;BME280;8870;50.950;11.762;2022-09-01T17:00:04;98712.75;;;23.39;45.64
17505;BME280;8870;50.950;11.762;2022-09-01T17:05:19;98712.16;;;23.26;46.09
17505;BME280;8870;50.950;11.762;2022-09-01T17:10:32;98710.94;;;23.21;46.19
17505;BME280;8870;50.950;11.762;2022-09-01T17:15:43;98713.97;;;23.01;46.38
17505;BME280;8870;50.950;11.762;2022-09-01T17:20:55;98713.97;;;22.89;46.41
17505;BME280;8870;50.950;11.762;2022-09-01T17:26:04;98715.19;;;22.63;47.27
17505;BME280;8870;50.950;11.762;2022-09-01T17:31:13;98724.06;;;22.28;48.15
17505;BME280;8870;50.950;11.762;2022-09-01T17:36:27;98730.94;;;22.00;49.20
17505;BME280;8870;50.950;11.762;2022-09-01T17:41:40;98734.53;;;21.57;50.65
17505;BME280;8870;50.950;11.762;2022-09-01T17:46:51;98739.47;;;21.22;52.38
17505;BME280;8870;50.950;11.762;2022-09-01T17:57:37;98739.47;;;20.45;55.85
17505;BME280;8870;50.950;11.762;2022-09-01T18:03:14;98741.31;;;20.06;58.36
17505;BME280;8870;50.950;11.762;2022-09-01T18:08:29;98740.75;;;19.77;60.06
17505;BME280;8870;50.950;11.762;2022-09-01T18:13:41;98737.41;;;19.41;62.94
17505;BME280;8870;50.950;11.762;2022-09-01T18:18:59;98742.03;;;19.14;65.69
17505;BME280;8870;50.950;11.762;2022-09-01T18:24:13;98742.41;;;18.84;70.40
17505;BME280;8870;50.950;11.762;2022-09-01T18:29:21;98751.78;;;18.54;73.38
17505;BME280;8870;50.950;11.762;2022-09-01T18:34:40;98754.63;;;18.32;77.95
17505;BME280;8870;50.950;11.762;2022-09-01T18:39:56;98759.34;;;18.10;81.02
17505;BME280;8870;50.950;11.762;2022-09-01T18:45:22;98759.84;;;17.92;82.57
17505;BME280;8870;50.950;11.762;2022-09-01T18:50:31;98758.03;;;17.71;87.98
17505;BME280;8870;50.950;11.762;2022-09-01T18:55:43;98758.34;;;17.54;93.05
17505;BME280;8870;50.950;11.762;2022-09-01T19:01:00;98760.97;;;17.41;96.02
17505;BME280;8870;50.950;11.762;2022-09-01T19:06:13;98771.53;;;17.29;96.62
17505;BME280;8870;50.950;11.762;2022-09-01T19:11:34;98761.78;;;17.13;100.00
17505;BME280;8870;50.950;11.762;2022-09-01T19:17:06;98757.72;;;17.02;100.00
17505;BME280;8870;50.950;11.762;2022-09-01T19:22:34;98762.59;;;16.92;100.00
17505;BME280;8870;50.950;11.762;2022-09-01T19:27:52;98771.34;;;16.87;100.00
17505;BME280;8870;50.950;11.762;2022-09-01T19:33:04;98766.81;;;16.73;100.00
17505;BME280;8870;50.950;11.762;2022-09-01T19:38:15;98773.19;;;16.65;100.00
17505;BME280;8870;50.950;11.762;2022-09-01T19:43:33;98775.00;;;16.58;100.00
17505;BME280;8870;50.950;11.762;2022-09-01T19:48:46;98776.78;;;16.51;100.00
17505;BME280;8870;50.950;11.762;2022-09-01T19:53:57;98776.91;;;16.42;100.00
17505;BME280;8870;50.950;11.762;2022-09-01T19:59:06;98777.19;;;16.32;100.00
17505;BME280;8870;50.950;11.762;2022-09-01T20:04:31;98770.66;;;16.27;100.00
17505;BME280;8870;50.950;11.762;2022-09-01T20:09:45;98766.56;;;16.16;100.00
17505;BME280;8870;50.950;11.762;2022-09-01T20:15:00;98775.19;;;16.05;100.00
17505;BME280;8870;50.950;11.762;2022-09-01T20:20:11;98775.91;;;15.98;100.00
17505;BME280;8870;50.950;11.762;2022-09-01T20:25:19;98784.84;;;15.92;100.00
17505;BME280;8870;50.950;11.762;2022-09-01T20:30:28;98777.75;;;15.83;100.00
17505;BME280;8870;50.950;11.762;2022-09-01T20:35:41;98778.31;;;15.78;100.00
17505;BME280;8870;50.950;11.762;2022-09-01T20:40:48;98790.09;;;15.70;100.00
17505;BME280;8870;50.950;11.762;2022-09-01T20:45:52;98780.00;;;15.64;100.00
17505;BME280;8870;50.950;11.762;2022-09-01T20:51:06;98775.78;;;15.62;100.00
17505;BME280;8870;50.950;11.762;2022-09-01T20:56:18;98778.03;;;15.58;100.00
17505;BME280;8870;50.950;11.762;2022-09-01T21:01:29;98774.00;;;15.54;100.00
17505;BME280;8870;50.950;11.762;2022-09-01T21:06:47;98776.03;;;15.52;100.00
17505;BME280;8870;50.950;11.762;2022-09-01T21:11:59;98776.41;;;15.49;100.00
17505;BME280;8870;50.950;11.762;2022-09-01T21:17:11;98773.41;;;15.44;100.00
17505;BME280;8870;50.950;11.762;2022-09-01T21:22:20;98772.75;;;15.41;100.00
17505;BME280;8870;50.950;11.762;2022-09-01T21:27:26;98769.56;;;15.38;100.00
17505;BME280;8870;50.950;11.762;2022-09-01T21:32:34;98766.53;;;15.33;100.00
17505;BME280;8870;50.950;11.762;2022-09-01T21:37:42;98762.69;;;15.27;100.00
17505;BME280;8870;50.950;11.762;2022-09-01T21:42:48;98761.75;;;15.20;100.00
17505;BME280;8870;50.950;11.762;2022-09-01T21:47:55;98763.19;;;15.07;100.00
17505;BME280;8870;50.950;11.762;2022-09-01T21:53:02;98760.91;;;14.96;100.00
17505;BME280;8870;50.950;11.762;2022-09-01T21:58:07;98760.31;;;14.86;100.00
17505;BME280;8870;50.950;11.762;2022-09-01T22:03:12;98758.97;;;14.82;100.00
17505;BME280;8870;50.950;11.762;2022-09-01T22:08:19;98756.34;;;14.73;100.00
17505;BME280;8870;50.950;11.762;2022-09-01T22:13:25;98754.31;;;14.67;100.00
17505;BME280;8870;50.950;11.762;2022-09-01T22:18:29;98756.22;;;14.58;100.00
17505;BME280;8870;50.950;11.762;2022-09-01T22:23:37;98747.59;;;14.55;100.00
17505;BME280;8870;50.950;11.762;2022-09-01T22:28:42;98743.25;;;14.45;100.00
17505;BME280;8870;50.950;11.762;2022-09-01T22:33:47;98745.66;;;14.40;100.00
17505;BME280;8870;50.950;11.762;2022-09-01T22:38:55;98746.38;;;14.34;100.00
17505;BME280;8870;50.950;11.762;2022-09-01T22:44:01;98749.13;;;14.26;100.00
17505;BME280;8870;50.950;11.762;2022-09-01T22:49:07;98755.44;;;14.18;100.00
17505;BME280;8870;50.950;11.762;2022-09-01T22:54:15;98757.84;;;14.05;100.00
17505;BME280;8870;50.950;11.762;2022-09-01T22:59:27;98752.63;;;13.95;100.00
17505;BME280;8870;50.950;11.762;2022-09-01T23:04:36;98756.34;;;13.94;100.00
17505;BME280;8870;50.950;11.762;2022-09-01T23:09:44;98750.09;;;13.93;100.00
17505;BME280;8870;50.950;11.762;2022-09-01T23:14:48;98753.00;;;13.92;100.00
17505;BME280;8870;50.950;11.762;2022-09-01T23:19:55;98742.81;;;13.94;100.00
17505;BME280;8870;50.950;11.762;2022-09-01T23:25:06;98733.31;;;13.98;100.00
17505;BME280;8870;50.950;11.762;2022-09-01T23:30:13;98746.38;;;13.94;100.00
17505;BME280;8870;50.950;11.762;2022-09-01T23:35:18;98736.59;;;13.85;100.00
17505;BME280;8870;50.950;11.762;2022-09-01T23:40:25;98731.19;;;13.77;100.00
17505;BME280;8870;50.950;11.762;2022-09-01T23:45:30;98732.06;;;13.77;100.00
17505;BME280;8870;50.950;11.762;2022-09-01T23:50:39;98734.09;;;13.75;100.00
17505;BME280;8870;50.950;11.762;2022-09-01T23:55:50;98734.13;;;13.67;100.00
